Dannelly, Alabama
Current Conditions -  °F | °C
As of 5:58 AM on Friday 24 Oct 2014 (Local Time) from KMXF Reporting Station
Haze Haze  
Wind Chill: 46°   Ceiling: 21000
Heat Index: 46°   Visibility: 5mi
Dew Point: 46°   Wind: 0mph
Humidity: 100%   Direction: NA
Pressure: 30.07"   Gusts: NA
Location:  32.3488°N, 86.4016°W
Report Text: KMXF 241058Z AUTO 00000KT 5SM BR SCT180 BKN210 08/08 A3007 RMK AO2 SLP185 T00790079
Loading
Personal Weather Stations






























Interactive Weather Map New forecast layout! Learn more

10-Day Weather Forecast

Advertisements
Track Severe Weather on mobile